createdAt,value
2018-05-21T00:01:44.641Z,101710.57
2018-05-21T00:04:20.339Z,101704.33
2018-05-21T00:06:55.355Z,101711.80
2018-05-21T00:09:29.894Z,101700.70
2018-05-21T00:12:04.554Z,101714.20
2018-05-21T00:14:39.942Z,101705.55
2018-05-21T00:17:14.806Z,101709.56
2018-05-21T00:19:49.535Z,101704.91
2018-05-21T00:22:24.762Z,101703.53
2018-05-21T00:24:59.698Z,101704.75
2018-05-21T00:27:34.658Z,101710.02
2018-05-21T00:30:09.583Z,101702.72
2018-05-21T00:32:44.565Z,101699.67
2018-05-21T00:35:19.440Z,101702.33
2018-05-21T00:37:54.451Z,101699.37
2018-05-21T00:40:29.374Z,101700.73
2018-05-21T00:43:04.418Z,101697.09
2018-05-21T00:45:39.457Z,101693.53
2018-05-21T00:48:14.414Z,101697.67
2018-05-21T00:50:48.814Z,101695.77
2018-05-21T00:53:24.374Z,101703.26
2018-05-21T00:55:59.454Z,101695.76
2018-05-21T00:58:34.269Z,101694.57
2018-05-21T01:01:08.566Z,101703.96
2018-05-21T01:03:43.719Z,101704.80
2018-05-21T01:06:18.294Z,101704.55
2018-05-21T01:08:53.658Z,101700.85
2018-05-21T01:11:28.773Z,101701.66
2018-05-21T01:14:03.506Z,101703.75
2018-05-21T01:16:38.606Z,101708.42
2018-05-21T01:19:13.566Z,101711.50
2018-05-21T01:21:48.467Z,101711.13
2018-05-21T01:24:23.472Z,101705.11
2018-05-21T01:26:58.475Z,101698.16
2018-05-21T01:29:33.743Z,101696.42
2018-05-21T01:32:09.041Z,101699.30
2018-05-21T01:34:44.016Z,101699.66
2018-05-21T01:37:19.499Z,101695.61
2018-05-21T01:39:54.476Z,101693.48
2018-05-21T01:42:29.678Z,101693.02
2018-05-21T01:45:03.861Z,101688.52
2018-05-21T01:47:39.302Z,101696.56
2018-05-21T01:50:13.850Z,101695.09
2018-05-21T01:52:49.081Z,101695.06
2018-05-21T01:55:24.537Z,101682.38
2018-05-21T01:57:59.494Z,101686.53
2018-05-21T02:00:34.626Z,101681.84
2018-05-21T02:03:09.402Z,101674.36
2018-05-21T02:05:44.036Z,101680.19
2018-05-21T02:08:19.753Z,101675.09
2018-05-21T02:10:55.214Z,101679.18
2018-05-21T02:13:30.140Z,101666.08
2018-05-21T02:16:05.570Z,101671.88
2018-05-21T02:18:39.963Z,101668.31
2018-05-21T02:21:14.957Z,101661.11
2018-05-21T02:23:50.043Z,101666.65
2018-05-21T02:26:25.690Z,101666.30
2018-05-21T02:29:00.726Z,101661.33
2018-05-21T02:31:35.628Z,101666.05
2018-05-21T02:34:10.768Z,101660.83
2018-05-21T02:36:45.559Z,101661.80
2018-05-21T02:39:20.574Z,101654.34
2018-05-21T02:41:55.602Z,101663.63
2018-05-21T02:44:30.126Z,101663.97
2018-05-21T02:47:04.928Z,101659.71
2018-05-21T02:49:39.954Z,101660.16
2018-05-21T02:52:14.753Z,101658.02
2018-05-21T02:54:49.594Z,101650.33
2018-05-21T02:57:24.633Z,101650.95
2018-05-21T02:59:59.138Z,101649.70
2018-05-21T03:02:34.030Z,101644.69
2018-05-21T03:05:09.141Z,101647.35
2018-05-21T03:07:43.392Z,101639.52
2018-05-21T03:10:18.823Z,101640.55
2018-05-21T03:12:53.874Z,101639.83
2018-05-21T03:15:29.283Z,101634.90
2018-05-21T03:18:03.777Z,101634.39
2018-05-21T03:20:38.909Z,101632.02
2018-05-21T03:23:13.821Z,101637.95
2018-05-21T03:25:48.347Z,101638.69
2018-05-21T03:28:23.255Z,101630.17
2018-05-21T03:30:58.235Z,101630.70
2018-05-21T03:33:33.247Z,101630.70
2018-05-21T03:36:08.594Z,101632.17
2018-05-21T03:38:43.982Z,101627.09
2018-05-21T03:41:18.750Z,101630.52
2018-05-21T03:43:53.883Z,101633.75
2018-05-21T03:46:28.886Z,101641.42
2018-05-21T03:49:03.886Z,101635.16
2018-05-21T03:51:39.170Z,101636.25
2018-05-21T03:54:13.879Z,101635.94
2018-05-21T03:56:48.728Z,101638.64
2018-05-21T03:59:35.104Z,101634.67
2018-05-21T04:02:20.953Z,101637.66
2018-05-21T04:04:55.754Z,101637.93
2018-05-21T04:07:30.402Z,101634.02
2018-05-21T04:10:04.917Z,101637.48
2018-05-21T04:12:40.031Z,101628.66
2018-05-21T04:15:15.346Z,101627.31
2018-05-21T04:17:50.662Z,101628.86
2018-05-21T04:20:25.406Z,101626.72
2018-05-21T04:23:00.331Z,101634.63
2018-05-21T04:25:35.359Z,101636.84
2018-05-21T04:28:10.414Z,101634.19
2018-05-21T04:30:45.404Z,101637.09
2018-05-21T04:33:20.831Z,101645.63
2018-05-21T04:35:55.926Z,101638.49
2018-05-21T04:38:30.920Z,101632.44
2018-05-21T04:41:05.970Z,101630.75
2018-05-21T04:43:40.998Z,101634.03
2018-05-21T04:46:15.859Z,101634.73
2018-05-21T04:48:50.964Z,101636.13
2018-05-21T04:51:25.890Z,101635.22
2018-05-21T04:54:00.874Z,101639.83
2018-05-21T04:56:36.287Z,101633.88
2018-05-21T04:59:11.330Z,101637.54
2018-05-21T05:01:46.229Z,101629.73
2018-05-21T05:04:21.378Z,101633.52
2018-05-21T05:06:56.439Z,101638.78
2018-05-21T05:09:31.350Z,101633.97
2018-05-21T05:12:06.991Z,101628.05
2018-05-21T05:14:42.582Z,101625.31
2018-05-21T05:17:17.281Z,101620.49
2018-05-21T05:19:52.426Z,101622.30
2018-05-21T05:22:28.504Z,101627.05
2018-05-21T05:25:03.139Z,101621.60
2018-05-21T05:27:38.025Z,101620.37
2018-05-21T05:30:13.030Z,101620.10
2018-05-21T05:32:47.962Z,101622.94
2018-05-21T05:35:22.722Z,101614.52
2018-05-21T05:37:58.179Z,101608.42
2018-05-21T05:40:33.347Z,101610.64
2018-05-21T05:43:08.158Z,101614.58
2018-05-21T05:45:43.302Z,101613.74
2018-05-21T05:48:18.212Z,101608.12
2018-05-21T05:50:53.374Z,101609.92
2018-05-21T05:53:28.230Z,101604.11
2018-05-21T05:56:03.539Z,101606.67
2018-05-21T05:58:38.703Z,101611.74
2018-05-21T06:01:14.043Z,101603.38
2018-05-21T06:03:48.749Z,101606.23
2018-05-21T06:06:23.974Z,101605.58
2018-05-21T06:08:58.257Z,101600.77
2018-05-21T06:11:33.777Z,101595.05
2018-05-21T06:14:08.291Z,101591.70
2018-05-21T06:16:43.416Z,101590.69
2018-05-21T06:19:18.160Z,101590.47
2018-05-21T06:21:53.066Z,101585.91
2018-05-21T06:24:28.474Z,101580.62
2018-05-21T06:27:03.438Z,101580.30
2018-05-21T06:29:38.691Z,101582.93
2018-05-21T06:32:13.618Z,101585.33
2018-05-21T06:34:48.670Z,101583.04
2018-05-21T06:37:24.079Z,101583.84
2018-05-21T06:39:58.755Z,101585.50
2018-05-21T06:42:33.506Z,101586.44
2018-05-21T06:45:08.313Z,101577.94
2018-05-21T06:47:43.513Z,101587.84
2018-05-21T06:50:18.339Z,101580.75
2018-05-21T06:52:53.311Z,101586.41
2018-05-21T06:55:28.339Z,101580.40
2018-05-21T06:58:03.295Z,101578.52
2018-05-21T07:00:39.310Z,101583.10
2018-05-21T07:03:13.705Z,101579.34
2018-05-21T07:05:48.686Z,101578.15
2018-05-21T07:08:23.622Z,101587.26
2018-05-21T07:10:58.113Z,101578.25
2018-05-21T07:13:33.577Z,101581.55
2018-05-21T07:16:08.152Z,101576.94
2018-05-21T07:18:43.353Z,101569.31
2018-05-21T07:21:18.365Z,101577.86
2018-05-21T07:23:53.426Z,101576.22
2018-05-21T07:26:28.643Z,101558.78
2018-05-21T07:29:03.034Z,101555.33
2018-05-21T07:31:38.203Z,101560.05
2018-05-21T07:34:13.337Z,101559.56
2018-05-21T07:36:48.234Z,101550.25
2018-05-21T07:39:22.931Z,101550.51
2018-05-21T07:41:58.261Z,101542.86
2018-05-21T07:44:33.255Z,101536.17
2018-05-21T07:47:08.623Z,101539.58
2018-05-21T07:49:43.310Z,101534.69
2018-05-21T07:52:18.407Z,101529.53
2018-05-21T07:54:53.406Z,101532.34
2018-05-21T07:57:28.731Z,101526.32
2018-05-21T08:00:03.736Z,101527.02
2018-05-21T08:02:38.699Z,101527.34
2018-05-21T08:05:13.863Z,101521.03
2018-05-21T08:07:48.591Z,101524.24
2018-05-21T08:10:23.339Z,101522.30
2018-05-21T08:12:58.502Z,101518.31
2018-05-21T08:15:33.420Z,101516.80
2018-05-21T08:18:07.944Z,101521.70
2018-05-21T08:20:42.863Z,101518.92
2018-05-21T08:23:17.818Z,101512.58
2018-05-21T08:25:52.835Z,101514.33
2018-05-21T08:28:28.987Z,101500.64
2018-05-21T08:31:03.533Z,101514.02
2018-05-21T08:33:38.790Z,101508.17
2018-05-21T08:36:13.991Z,101505.80
2018-05-21T08:38:49.386Z,101500.55
2018-05-21T08:41:24.606Z,101492.11
2018-05-21T08:43:59.519Z,101490.59
2018-05-21T08:46:34.689Z,101489.21
2018-05-21T08:49:09.511Z,101489.50
2018-05-21T08:51:44.570Z,101481.70
2018-05-21T08:54:19.558Z,101484.10
2018-05-21T08:56:54.462Z,101487.95
2018-05-21T08:59:29.138Z,101472.95
2018-05-21T09:02:03.476Z,101472.09
2018-05-21T09:04:38.643Z,101472.57
2018-05-21T09:07:13.641Z,101475.41
2018-05-21T09:09:48.468Z,101467.46
2018-05-21T09:12:23.324Z,101472.39
2018-05-21T09:14:58.557Z,101465.38
2018-05-21T09:17:33.586Z,101463.81
2018-05-21T09:20:08.345Z,101462.88
2018-05-21T09:22:43.646Z,101469.99
2018-05-21T09:25:18.710Z,101451.69
2018-05-21T09:27:53.698Z,101451.24
2018-05-21T09:30:29.130Z,101462.91
2018-05-21T09:33:03.606Z,101457.24
2018-05-21T09:35:38.830Z,101449.95
2018-05-21T09:38:13.586Z,101461.41
2018-05-21T09:40:48.547Z,101446.44
2018-05-21T09:43:23.747Z,101451.28
2018-05-21T09:45:58.741Z,101445.64
2018-05-21T09:48:33.948Z,101437.67
2018-05-21T09:51:09.754Z,101443.22
2018-05-21T09:53:45.402Z,101442.57
2018-05-21T09:56:20.230Z,101439.72
2018-05-21T09:58:55.173Z,101425.06
2018-05-21T10:01:30.772Z,101425.80
2018-05-21T10:04:06.099Z,101422.95
2018-05-21T10:06:41.014Z,101418.98
2018-05-21T10:09:15.820Z,101412.22
2018-05-21T10:11:50.773Z,101412.10
2018-05-21T10:14:25.665Z,101418.08
2018-05-21T10:17:00.650Z,101405.36
2018-05-21T10:19:36.073Z,101408.88
2018-05-21T10:22:11.818Z,101402.50
2018-05-21T10:24:46.382Z,101402.34
2018-05-21T10:27:21.286Z,101396.05
2018-05-21T10:29:56.011Z,101394.27
2018-05-21T10:32:31.060Z,101376.49
2018-05-21T10:35:05.811Z,101380.66
2018-05-21T10:37:41.086Z,101378.78
2018-05-21T10:40:15.962Z,101385.91
2018-05-21T10:42:50.694Z,101386.00
2018-05-21T10:45:26.102Z,101381.78
2018-05-21T10:48:01.300Z,101373.80
2018-05-21T10:50:36.197Z,101368.42
2018-05-21T10:53:11.361Z,101369.27
2018-05-21T10:55:46.375Z,101365.23
2018-05-21T10:58:21.790Z,101365.81
2018-05-21T11:00:57.102Z,101363.41
2018-05-21T11:03:32.375Z,101358.23
2018-05-21T11:06:06.651Z,101352.39
2018-05-21T11:08:42.122Z,101343.74
2018-05-21T11:11:16.978Z,101335.94
2018-05-21T11:13:51.525Z,101338.91
2018-05-21T11:16:26.875Z,101324.52
2018-05-21T11:19:01.686Z,101324.87
2018-05-21T11:21:36.755Z,101320.33
2018-05-21T11:24:11.681Z,101323.08
2018-05-21T11:26:47.030Z,101321.12
2018-05-21T11:29:21.850Z,101318.25
2018-05-21T11:31:56.653Z,101307.67
2018-05-21T11:34:31.714Z,101298.02
2018-05-21T11:37:06.902Z,101301.20
2018-05-21T11:39:41.383Z,101299.04
2018-05-21T11:42:16.526Z,101292.48
2018-05-21T11:44:51.876Z,101290.61
2018-05-21T11:47:26.506Z,101288.96
2018-05-21T11:50:01.602Z,101290.56
2018-05-21T11:52:36.956Z,101284.40
2018-05-21T11:55:12.010Z,101284.50
2018-05-21T11:57:46.814Z,101263.51
2018-05-21T12:00:22.087Z,101261.41
2018-05-21T12:02:57.215Z,101269.38
2018-05-21T12:05:32.539Z,101277.53
2018-05-21T12:08:07.091Z,101266.66
2018-05-21T12:10:42.423Z,101272.55
2018-05-21T12:13:18.034Z,101269.19
2018-05-21T12:15:52.619Z,101272.02
2018-05-21T12:18:27.506Z,101264.22
2018-05-21T12:21:02.951Z,101265.91
2018-05-21T12:23:37.600Z,101261.10
2018-05-21T12:26:13.002Z,101263.81
2018-05-21T12:28:47.506Z,101255.03
2018-05-21T12:31:23.171Z,101242.76
2018-05-21T12:33:58.098Z,101231.98
2018-05-21T12:36:33.070Z,101242.57
2018-05-21T12:39:08.308Z,101239.23
2018-05-21T12:41:43.204Z,101242.25
2018-05-21T12:44:18.002Z,101248.04
2018-05-21T12:46:53.088Z,101234.59
2018-05-21T12:49:29.314Z,101220.13
2018-05-21T12:52:04.300Z,101215.66
2018-05-21T12:54:39.601Z,101221.51
2018-05-21T12:57:14.278Z,101221.95
2018-05-21T12:59:49.490Z,101214.60
2018-05-21T13:02:24.340Z,101215.30
2018-05-21T13:04:59.518Z,101216.20
2018-05-21T13:07:34.811Z,101208.53
2018-05-21T13:10:09.243Z,101205.20
2018-05-21T13:12:44.458Z,101207.13
2018-05-21T13:15:19.020Z,101206.06
2018-05-21T13:17:54.150Z,101207.05
2018-05-21T13:20:29.538Z,101211.94
2018-05-21T13:23:03.786Z,101197.55
2018-05-21T13:25:39.130Z,101198.41
2018-05-21T13:28:14.346Z,101182.57
2018-05-21T13:30:49.252Z,101189.27
2018-05-21T13:33:24.459Z,101184.80
2018-05-21T13:35:59.622Z,101177.13
2018-05-21T13:38:34.470Z,101176.91
2018-05-21T13:41:09.487Z,101179.68
2018-05-21T13:43:44.812Z,101181.91
2018-05-21T13:46:19.434Z,101179.45
2018-05-21T13:48:55.106Z,101168.48
2018-05-21T13:51:30.558Z,101165.94
2018-05-21T13:54:05.487Z,101167.31
2018-05-21T13:56:40.590Z,101166.91
2018-05-21T13:59:15.263Z,101150.21
2018-05-21T14:01:50.285Z,101148.61
2018-05-21T14:04:25.350Z,101153.40
2018-05-21T14:06:59.906Z,101147.55
2018-05-21T14:09:34.714Z,101144.68
2018-05-21T14:12:09.643Z,101138.40
2018-05-21T14:14:44.482Z,101141.66
2018-05-21T14:17:19.711Z,101135.23
2018-05-21T14:19:54.367Z,101140.55
2018-05-21T14:22:29.689Z,101143.96
2018-05-21T14:25:04.712Z,101119.08
2018-05-21T14:27:39.641Z,101132.97
2018-05-21T14:30:14.543Z,101112.88
2018-05-21T14:32:49.547Z,101112.38
2018-05-21T14:35:24.563Z,101115.19
2018-05-21T14:37:59.571Z,101107.32
2018-05-21T14:40:34.591Z,101104.00
2018-05-21T14:43:10.015Z,101113.20
2018-05-21T14:45:45.445Z,101103.12
2018-05-21T14:48:20.321Z,101100.80
2018-05-21T14:50:56.192Z,101101.19
2018-05-21T14:53:31.599Z,101091.52
2018-05-21T14:56:06.134Z,101087.48
2018-05-21T14:58:40.625Z,101089.00
2018-05-21T15:01:15.893Z,101087.28
2018-05-21T15:03:50.853Z,101081.44
2018-05-21T15:06:25.870Z,101074.95
2018-05-21T15:09:00.878Z,101075.91
2018-05-21T15:11:35.630Z,101075.49
2018-05-21T15:14:10.723Z,101070.63
2018-05-21T15:19:43.758Z,101063.28
2018-05-21T15:22:19.010Z,101055.41
2018-05-21T15:24:54.342Z,101049.86
2018-05-21T15:27:29.845Z,101057.09
2018-05-21T15:30:04.726Z,101049.98
2018-05-21T15:32:39.674Z,101052.86
2018-05-21T15:35:14.349Z,101047.98
2018-05-21T15:37:49.136Z,101050.66
2018-05-21T15:40:24.449Z,101032.48
2018-05-21T15:43:00.464Z,101031.62
2018-05-21T15:45:35.635Z,101032.15
2018-05-21T15:48:11.191Z,101033.32
2018-05-21T15:50:46.043Z,101034.61
2018-05-21T15:53:20.649Z,101036.72
2018-05-21T15:55:55.906Z,101036.43
2018-05-21T15:58:30.973Z,101035.97
2018-05-21T16:01:05.737Z,101036.72
2018-05-21T16:03:41.015Z,101035.47
2018-05-21T16:06:15.410Z,101028.33
2018-05-21T16:08:50.694Z,101024.79
2018-05-21T16:11:25.821Z,101023.78
2018-05-21T16:14:00.789Z,101021.83
2018-05-21T16:16:35.949Z,101025.14
2018-05-21T16:19:10.956Z,101020.57
2018-05-21T16:21:45.832Z,101020.14
2018-05-21T16:24:21.205Z,101010.91
2018-05-21T16:26:55.726Z,101017.02
2018-05-21T16:29:30.881Z,101015.09
2018-05-21T16:32:05.735Z,101012.52
2018-05-21T16:34:41.010Z,101013.78
2018-05-21T16:37:15.881Z,101007.33
2018-05-21T16:39:50.903Z,101005.19
2018-05-21T16:42:25.947Z,101010.59
2018-05-21T16:45:00.962Z,101009.94
2018-05-21T16:47:36.038Z,101000.84
2018-05-21T16:50:11.036Z,100994.17
2018-05-21T16:52:46.728Z,100993.51
2018-05-21T16:55:21.142Z,100995.28
2018-05-21T16:57:56.045Z,100996.55
2018-05-21T17:00:31.313Z,100999.30
2018-05-21T17:03:05.589Z,100998.30
2018-05-21T17:05:41.142Z,100986.30
2018-05-21T17:08:15.833Z,100990.65
2018-05-21T17:10:50.869Z,100989.27
2018-05-21T17:13:26.090Z,100995.67
2018-05-21T17:16:01.002Z,100989.67
2018-05-21T17:18:36.074Z,100991.16
2018-05-21T17:21:10.851Z,100986.36
2018-05-21T17:23:45.868Z,100981.06
2018-05-21T17:26:20.709Z,100980.36
2018-05-21T17:28:55.689Z,100984.95
2018-05-21T17:31:30.925Z,100974.66
2018-05-21T17:34:05.406Z,100981.65
2018-05-21T17:36:39.986Z,100984.25
2018-05-21T17:39:14.940Z,100980.17
2018-05-21T17:41:49.866Z,100976.03
2018-05-21T17:44:24.829Z,100982.20
2018-05-21T17:46:59.381Z,100982.58
2018-05-21T17:49:35.027Z,100978.36
2018-05-21T17:52:09.860Z,100979.52
2018-05-21T17:54:45.038Z,100967.77
2018-05-21T17:57:19.527Z,100972.93
2018-05-21T17:59:54.681Z,100977.09
2018-05-21T18:02:30.265Z,100973.42
2018-05-21T18:05:05.489Z,100977.09
2018-05-21T18:07:40.525Z,100977.69
2018-05-21T18:10:15.785Z,100980.82
2018-05-21T18:12:50.488Z,100979.91
2018-05-21T18:15:25.359Z,100980.35
2018-05-21T18:18:00.448Z,100977.85
2018-05-21T18:20:35.279Z,100983.66
2018-05-21T18:23:10.109Z,100978.67
2018-05-21T18:25:45.349Z,100983.06
2018-05-21T18:28:20.866Z,100976.20
2018-05-21T18:30:55.901Z,100974.58
2018-05-21T18:33:31.193Z,100972.95
2018-05-21T18:36:05.761Z,100974.12
2018-05-21T18:38:41.126Z,100972.49
2018-05-21T18:41:15.929Z,100971.26
2018-05-21T18:43:50.818Z,100972.53
2018-05-21T18:46:26.017Z,100969.98
2018-05-21T18:49:00.938Z,100975.32
2018-05-21T18:51:36.186Z,100973.59
2018-05-21T18:54:11.079Z,100972.36
2018-05-21T18:56:46.879Z,100974.67
2018-05-21T18:59:21.898Z,100982.51
2018-05-21T19:01:56.661Z,100974.83
2018-05-21T19:04:31.572Z,100979.45
2018-05-21T19:07:06.702Z,100982.30
2018-05-21T19:09:42.220Z,100986.63
2018-05-21T19:12:17.033Z,100982.60
2018-05-21T19:14:52.037Z,100984.34
2018-05-21T19:17:26.980Z,100987.05
2018-05-21T19:20:02.025Z,100987.34
2018-05-21T19:22:36.516Z,100988.03
2018-05-21T19:25:11.426Z,100986.41
2018-05-21T19:27:46.493Z,100986.73
2018-05-21T19:30:21.429Z,100980.86
2018-05-21T19:32:56.246Z,100987.68
2018-05-21T19:35:32.226Z,100988.67
2018-05-21T19:38:07.253Z,100993.98
2018-05-21T19:40:42.290Z,100990.52
2018-05-21T19:43:17.345Z,100996.80
2018-05-21T19:45:52.225Z,100992.55
2018-05-21T19:48:27.349Z,101001.81
2018-05-21T19:51:01.899Z,100997.11
2018-05-21T19:53:36.533Z,101000.05
2018-05-21T19:56:11.789Z,100993.00
2018-05-21T19:58:46.633Z,100993.32
2018-05-21T20:01:21.569Z,100993.82
2018-05-21T20:03:56.717Z,100993.42
2018-05-21T20:06:31.595Z,100995.09
2018-05-21T20:09:05.829Z,100991.38
2018-05-21T20:11:41.377Z,100999.58
2018-05-21T20:14:16.333Z,100993.95
2018-05-21T20:16:51.337Z,100996.37
2018-05-21T20:19:26.285Z,100994.75
2018-05-21T20:22:01.238Z,100992.13
2018-05-21T20:24:36.729Z,100993.17
2018-05-21T20:27:12.226Z,100991.45
2018-05-21T20:29:46.657Z,100991.98
2018-05-21T20:32:21.465Z,100993.30
2018-05-21T20:34:56.518Z,100994.57
2018-05-21T20:37:31.768Z,100987.62
2018-05-21T20:40:06.437Z,100991.67
2018-05-21T20:42:41.654Z,100990.20
2018-05-21T20:45:16.294Z,100985.33
2018-05-21T20:47:51.693Z,100985.72
2018-05-21T20:50:27.528Z,100981.05
2018-05-21T20:53:01.974Z,100991.73
2018-05-21T20:55:37.409Z,100982.47
2018-05-21T20:58:11.836Z,100984.77
2018-05-21T21:00:46.837Z,100985.30
2018-05-21T21:03:21.411Z,100993.44
2018-05-21T21:05:56.383Z,100988.95
2018-05-21T21:08:31.617Z,100990.48
2018-05-21T21:11:06.084Z,100992.17
2018-05-21T21:13:41.464Z,100994.13
2018-05-21T21:16:16.426Z,100992.95
2018-05-21T21:18:51.490Z,100994.41
2018-05-21T21:21:26.406Z,100982.36
2018-05-21T21:24:01.373Z,100987.52
2018-05-21T21:26:36.600Z,100987.34
2018-05-21T21:29:11.129Z,100986.09
2018-05-21T21:31:46.448Z,100992.06
2018-05-21T21:34:20.986Z,100986.09
2018-05-21T21:36:56.458Z,100981.38
2018-05-21T21:39:31.329Z,100978.08
2018-05-21T21:42:06.266Z,100981.91
2018-05-21T21:44:41.737Z,100978.11
2018-05-21T21:47:16.268Z,100981.31
2018-05-21T21:49:51.506Z,100980.89
2018-05-21T21:52:26.654Z,100980.77
2018-05-21T21:55:01.637Z,100978.94
2018-05-21T21:57:36.933Z,100980.05
2018-05-21T22:00:12.157Z,100978.91
2018-05-21T22:02:47.128Z,100980.91
2018-05-21T22:05:22.158Z,100972.25
2018-05-21T22:07:56.860Z,100972.87
2018-05-21T22:10:31.534Z,100967.25
2018-05-21T22:13:06.725Z,100971.16
2018-05-21T22:15:41.792Z,100968.12
2018-05-21T22:18:16.806Z,100963.67
2018-05-21T22:20:51.730Z,100963.14
2018-05-21T22:23:26.860Z,100964.20
2018-05-21T22:26:01.687Z,100957.19
2018-05-21T22:28:36.847Z,100962.41
2018-05-21T22:31:11.748Z,100961.09
2018-05-21T22:33:46.793Z,100956.11
2018-05-21T22:36:21.529Z,100950.66
2018-05-21T22:38:56.016Z,100949.77
2018-05-21T22:41:31.202Z,100952.96
2018-05-21T22:44:06.669Z,100952.04
2018-05-21T22:46:41.545Z,100949.27
2018-05-21T22:49:16.431Z,100945.43
2018-05-21T22:51:51.018Z,100946.91
2018-05-21T22:54:35.030Z,100948.48
2018-05-21T22:57:09.728Z,100942.30
2018-05-21T22:59:44.840Z,100938.25
2018-05-21T23:02:19.761Z,100940.44
2018-05-21T23:04:54.753Z,100924.83
2018-05-21T23:07:31.145Z,100922.09
2018-05-21T23:10:05.734Z,100928.41
2018-05-21T23:12:40.701Z,100919.30
2018-05-21T23:15:15.969Z,100925.04
2018-05-21T23:17:50.950Z,100921.98
2018-05-21T23:20:26.102Z,100913.88
2018-05-21T23:23:00.820Z,100917.80
2018-05-21T23:25:37.020Z,100911.63
2018-05-21T23:28:11.769Z,100913.02
2018-05-21T23:30:47.297Z,100910.67
2018-05-21T23:33:21.973Z,100912.00
2018-05-21T23:35:57.073Z,100909.79
2018-05-21T23:38:32.240Z,100901.48
2018-05-21T23:41:08.337Z,100899.77
2018-05-21T23:43:42.721Z,100901.56
2018-05-21T23:46:17.793Z,100903.30
2018-05-21T23:48:52.704Z,100905.07
2018-05-21T23:51:27.798Z,100904.17
2018-05-21T23:54:02.785Z,100904.02
2018-05-21T23:56:37.718Z,100907.42
2018-05-21T23:59:12.845Z,100901.84
